Time;durP1;ratioP1;P1;durP2;ratioP2;P2;SDS_P1;SDS_P2;PMS_P1;PMS_P2;Temp;Humidity;BMP_temperature;BMP_pressure;BME280_temperature;BME280_humidity;BME280_pressure;Samples;Min_cycle;Max_cycle;Signal;HPM_P1;HPM_P2
2021/04/16 00:02:12;;;;;;;18.50;11.48;;;154.00;2150.40;;;;;;5076766;28;19904;-82
2021/04/16 00:04:38;;;;;;;;;;;154.00;2124.80;;;;;;5095482;28;20115;-82
2021/04/16 00:07:03;;;;;;;35.25;17.17;;;154.10;2124.80;;;;;;5092517;28;19926;-84
2021/04/16 00:09:29;;;;;;;;;;;154.10;2124.80;;;;;;5093793;28;20024;-84
2021/04/16 00:11:55;;;;;;;34.17;19.38;;;154.20;2124.80;;;;;;5077696;28;19914;-84
2021/04/16 00:14:20;;;;;;;;;;;154.10;2124.80;;;;;;5078312;28;20030;-83
2021/04/16 00:16:47;;;;;;;31.85;16.95;;;154.10;2099.20;;;;;;5077559;28;19911;-84
2021/04/16 00:19:13;;;;;;;27.42;15.63;;;154.10;2099.20;;;;;;5077573;28;20127;-82
2021/04/16 00:21:39;;;;;;;27.60;15.65;;;154.20;2099.20;;;;;;5077389;28;20039;-83
2021/04/16 00:24:07;;;;;;;22.98;14.27;;;154.00;2099.20;;;;;;5076547;28;20027;-82
2021/04/16 00:26:33;;;;;;;24.33;13.73;;;154.00;2099.20;;;;;;5076446;28;20082;-82
2021/04/16 00:28:58;;;;;;;;;;;154.00;2073.60;;;;;;5077531;28;20023;-84
2021/04/16 00:31:29;;;;;;;20.70;12.18;;;154.00;2048.00;;;;;;5077340;28;19915;-80
2021/04/16 00:33:54;;;;;;;22.52;12.38;;;154.00;2022.40;;;;;;5093072;28;20028;-81
2021/04/16 00:36:20;;;;;;;;;;;153.90;2022.40;;;;;;5077222;28;20028;-82
2021/04/16 00:38:47;;;;;;;21.52;11.65;;;154.10;2022.40;;;;;;5093006;28;19914;-82
2021/04/16 00:41:20;;;;;;;18.88;11.55;;;153.80;2022.40;;;;;;5092720;28;20071;-84
2021/04/16 00:43:46;;;;;;;18.00;12.40;;;153.60;2022.40;;;;;;5089748;28;20496;-85
2021/04/16 00:46:11;;;;;;;;;;;153.70;2022.40;;;;;;5094294;28;20043;-82
2021/04/16 00:48:44;;;;;;;22.88;11.73;;;128.90;2022.40;;;;;;5093604;28;19904;-83
2021/04/16 00:51:20;;;;;;;21.25;11.38;;;128.90;2022.40;;;;;;5093049;28;20040;-81
2021/04/16 00:53:46;;;;;;;17.45;11.55;;;128.80;2048.00;;;;;;5094852;28;20016;-81
2021/04/16 00:56:12;;;;;;;25.60;13.18;;;128.80;2022.40;;;;;;5094155;28;20038;-81
2021/04/16 00:58:38;;;;;;;;;;;128.80;2048.00;;;;;;5118455;27;20032;-82
2021/04/16 01:01:05;;;;;;;23.10;12.38;;;128.90;2022.40;;;;;;5076497;28;20013;-81
2021/04/16 01:03:32;;;;;;;18.08;11.88;;;128.60;2048.00;;;;;;5076862;28;20024;-81
2021/04/16 01:06:02;;;;;;;24.63;13.88;;;128.60;2022.40;;;;;;5077374;28;20039;-82
2021/04/16 01:08:28;;;;;;;26.60;13.57;;;128.90;2048.00;;;;;;5077461;28;20105;-82
2021/04/16 01:10:54;;;;;;;;;;;128.80;2022.40;;;;;;5078365;28;20032;-82
2021/04/16 01:13:23;;;;;;;26.65;13.18;;;128.80;2022.40;;;;;;5076095;28;19947;-81
2021/04/16 01:15:57;;;;;;;21.70;12.18;;;128.80;2022.40;;;;;;5077427;28;20109;-81
2021/04/16 01:18:27;;;;;;;23.25;12.75;;;128.80;2022.40;;;;;;5095993;28;20020;-82
2021/04/16 01:20:56;;;;;;;33.17;14.52;;;128.70;2022.40;;;;;;5079495;28;20421;-81
2021/04/16 01:23:55;;;;;;;30.33;14.40;;;128.60;2048.00;;;;;;5082051;28;20020;-81
2021/04/16 01:26:28;;;;;;;27.85;15.43;;;128.50;2048.00;;;;;;5105423;28;20088;-81
2021/04/16 01:28:57;;;;;;;33.22;15.68;;;128.60;2022.40;;;;;;5088664;28;20024;-81
2021/04/16 01:31:25;;;;;;;31.10;15.20;;;128.60;2022.40;;;;;;5088670;28;20050;-81
2021/04/16 01:33:51;;;;;;;29.88;16.73;;;128.70;2022.40;;;;;;5084912;28;20114;-81
2021/04/16 01:36:29;;;;;;;28.63;15.98;;;128.50;2022.40;;;;;;5102921;28;20059;-81
2021/04/16 01:38:58;;;;;;;32.20;16.80;;;128.50;2022.40;;;;;;5086565;28;20024;-82
2021/04/16 01:41:25;;;;;;;35.42;16.60;;;128.50;2048.00;;;;;;5087348;28;20021;-81
2021/04/16 01:44:01;;;;;;;41.65;17.33;;;128.50;2048.00;;;;;;5086176;28;20027;-81
2021/04/16 01:46:28;;;;;;;34.92;18.70;;;128.40;2048.00;;;;;;5084009;28;20058;-81
2021/04/16 01:48:59;;;;;;;35.67;18.48;;;128.60;2048.00;;;;;;5084294;28;20027;-80
2021/04/16 01:51:32;;;;;;;37.88;18.27;;;128.50;2022.40;;;;;;5085630;28;20044;-80
2021/04/16 01:54:05;;;;;;;34.03;18.17;;;128.40;2048.00;;;;;;5102985;28;20088;-82
2021/04/16 01:56:31;;;;;;;35.20;18.60;;;128.50;2022.40;;;;;;5086955;28;20050;-81
2021/04/16 01:58:56;;;;;;;;;;;128.50;2022.40;;;;;;5101964;28;20473;-81
2021/04/16 02:01:22;;;;;;;35.97;17.50;;;128.40;2022.40;;;;;;5096271;28;19911;-81
2021/04/16 02:03:48;;;;;;;;;;;128.10;2022.40;;;;;;5082091;28;20035;-83
2021/04/16 02:06:14;;;;;;;39.28;19.05;;;128.30;2022.40;;;;;;5078865;28;20418;-81
2021/04/16 02:08:39;;;;;;;;;;;128.30;2022.40;;;;;;5084392;28;20122;-81
2021/04/16 02:11:05;;;;;;;48.30;19.85;;;128.30;2048.00;;;;;;5078852;28;19908;-81
2021/04/16 02:13:30;;;;;;;;;;;128.00;2048.00;;;;;;5090418;28;20024;-81
2021/04/16 02:15:56;;;;;;;38.30;18.70;;;103.30;2022.40;;;;;;5087637;28;20349;-81
2021/04/16 02:18:23;;;;;;;;;;;103.30;2048.00;;;;;;5090942;28;20141;-81
2021/04/16 02:20:49;;;;;;;44.78;21.42;;;103.10;2048.00;;;;;;5088831;28;19983;-81
2021/04/16 02:23:14;;;;;;;;;;;103.10;2073.60;;;;;;5089239;28;20032;-81
2021/04/16 02:25:40;;;;;;;37.00;21.23;;;103.10;2073.60;;;;;;5086761;28;19912;-81
2021/04/16 02:28:06;;;;;;;54.47;23.05;;;103.00;2099.20;;;;;;5090619;28;20020;-81
2021/04/16 02:30:35;;;;;;;56.08;24.05;;;103.10;2073.60;;;;;;5090955;28;20043;-81
2021/04/16 02:33:01;;;;;;;61.40;26.23;;;103.00;2073.60;;;;;;5091820;28;20073;-81
2021/04/16 02:35:28;;;;;;;67.93;26.60;;;103.00;2073.60;;;;;;5108481;28;20032;-81
2021/04/16 02:37:54;;;;;;;;;;;103.00;2073.60;;;;;;5089112;28;20025;-81
2021/04/16 02:40:23;;;;;;;60.22;21.83;;;103.10;2073.60;;;;;;5088417;28;19911;-81
2021/04/16 02:42:52;;;;;;;49.95;22.77;;;103.00;2073.60;;;;;;5087199;28;20032;-82
2021/04/16 02:45:20;;;;;;;53.58;23.35;;;103.00;2073.60;;;;;;5086568;28;20032;-81
2021/04/16 02:47:46;;;;;;;58.65;23.73;;;102.90;2073.60;;;;;;5087139;28;20016;-81
2021/04/16 02:50:16;;;;;;;51.83;22.50;;;103.00;2073.60;;;;;;5087788;28;20056;-81
2021/04/16 02:52:42;;;;;;;62.50;26.45;;;102.90;2073.60;;;;;;5086837;28;20055;-81
2021/04/16 02:55:08;;;;;;;61.90;27.27;;;102.80;2073.60;;;;;;5105663;28;20073;-81
2021/04/16 02:57:34;;;;;;;71.05;29.27;;;102.80;2073.60;;;;;;5087119;28;20038;-81
2021/04/16 03:00:00;;;;;;;66.13;31.45;;;102.80;2099.20;;;;;;5087017;28;20052;-82
2021/04/16 03:02:26;;;;;;;;;;;102.90;2073.60;;;;;;5087202;28;20036;-80
2021/04/16 03:04:51;;;;;;;63.28;29.00;;;102.90;2073.60;;;;;;5087168;28;19912;-81
2021/04/16 03:07:17;;;;;;;;;;;102.80;2073.60;;;;;;5087790;28;20378;-82
2021/04/16 03:09:42;;;;;;;59.03;26.33;;;102.90;2073.60;;;;;;5104748;28;19904;-81
2021/04/16 03:12:08;;;;;;;;;;;102.90;2073.60;;;;;;5087704;28;20020;-81
2021/04/16 03:14:34;;;;;;;52.78;20.40;;;102.90;2073.60;;;;;;5086872;28;19973;-81
2021/04/16 03:17:00;;;;;;;;;;;102.90;2073.60;;;;;;5106137;28;20173;-81
2021/04/16 03:19:25;;;;;;;44.00;21.58;;;102.80;2073.60;;;;;;5104920;28;19919;-80
2021/04/16 03:21:51;;;;;;;;;;;102.90;2073.60;;;;;;5087092;28;20032;-81
2021/04/16 03:24:17;;;;;;;58.72;21.92;;;102.80;2073.60;;;;;;5087264;28;19904;-81
2021/04/16 03:26:42;;;;;;;52.78;22.65;;;102.80;2099.20;;;;;;5105404;28;20123;-81
2021/04/16 03:29:08;;;;;;;;;;;102.90;2073.60;;;;;;5088384;28;20513;-81
2021/04/16 03:31:34;;;;;;;68.10;30.60;;;102.90;2073.60;;;;;;5103991;28;19904;-81
2021/04/16 03:34:00;;;;;;;;;;;102.90;2048.00;;;;;;5120613;28;20036;-81
2021/04/16 03:36:28;;;;;;;59.53;26.30;;;102.80;2073.60;;;;;;5103715;28;19930;-81
2021/04/16 03:38:53;;;;;;;67.60;29.35;;;102.70;2073.60;;;;;;5119636;28;20036;-81
2021/04/16 03:41:19;;;;;;;64.63;29.83;;;102.70;2073.60;;;;;;5084151;28;20028;-81
2021/04/16 03:43:45;;;;;;;65.90;27.95;;;102.90;2073.60;;;;;;5118747;28;20182;-81
2021/04/16 03:46:11;;;;;;;;;;;102.80;2073.60;;;;;;5122628;28;20043;-80
2021/04/16 03:48:37;;;;;;;43.67;21.13;;;102.90;2048.00;;;;;;5085851;28;20006;-81
2021/04/16 03:51:04;;;;;;;45.95;21.65;;;102.80;2073.60;;;;;;5104136;28;20083;-81
2021/04/16 03:53:30;;;;;;;43.70;20.60;;;102.80;2073.60;;;;;;5118835;28;20393;-80
2021/04/16 03:55:56;;;;;;;45.72;20.92;;;102.80;2048.00;;;;;;5102247;28;20028;-81
2021/04/16 03:58:22;;;;;;;40.25;20.60;;;102.90;2048.00;;;;;;5077823;28;20029;-81
2021/04/16 04:00:47;;;;;;;44.42;20.88;;;102.90;2048.00;;;;;;5065455;28;20115;-81
2021/04/16 04:03:14;;;;;;;;;;;103.00;2048.00;;;;;;5064994;28;20079;-81
2021/04/16 04:05:40;;;;;;;32.30;16.27;;;103.00;2048.00;;;;;;5064876;28;19953;-81
2021/04/16 04:08:05;;;;;;;;;;;103.10;2048.00;;;;;;5085001;28;20029;-81
2021/04/16 04:10:38;;;;;;;27.52;14.60;;;103.10;2022.40;;;;;;5099781;28;19912;-80
2021/04/16 04:13:09;;;;;;;31.52;13.52;;;103.20;1996.80;;;;;;5065009;28;20529;-81
2021/04/16 04:15:35;;;;;;;31.55;13.68;;;103.10;1996.80;;;;;;5069736;28;20028;-81
2021/04/16 04:18:01;;;;;;;;;;;103.30;1996.80;;;;;;5086888;28;20048;-81
2021/04/16 04:20:30;;;;;;;29.95;15.00;;;103.30;1996.80;;;;;;5069216;28;19913;-81
2021/04/16 04:22:58;;;;;;;34.55;13.88;;;128.00;2022.40;;;;;;5069151;28;20473;-81
2021/04/16 04:25:26;;;;;;;25.02;13.68;;;103.30;1996.80;;;;;;5084787;28;20032;-81
2021/04/16 04:27:53;;;;;;;26.75;12.88;;;128.00;2022.40;;;;;;5068015;28;20029;-81
2021/04/16 04:30:23;;;;;;;29.02;14.57;;;128.00;1996.80;;;;;;5085495;28;20115;-81
2021/04/16 04:32:49;;;;;;;29.63;14.77;;;103.30;1996.80;;;;;;5077708;28;20547;-80
2021/04/16 04:35:15;;;;;;;24.48;12.93;;;128.00;2022.40;;;;;;5078121;28;20025;-80
2021/04/16 04:37:41;;;;;;;28.58;13.60;;;128.10;1996.80;;;;;;5060116;28;20024;-80
2021/04/16 04:40:07;;;;;;;;;;;128.00;2022.40;;;;;;5097861;28;20085;-80
2021/04/16 04:42:33;;;;;;;29.33;15.80;;;128.10;1996.80;;;;;;5110494;28;19918;-80
2021/04/16 04:44:59;;;;;;;;;;;128.00;2022.40;;;;;;5082136;28;20524;-81
2021/04/16 04:47:25;;;;;;;29.50;14.70;;;103.30;1996.80;;;;;;5087156;28;19904;-81
2021/04/16 04:49:50;;;;;;;;;;;128.00;2022.40;;;;;;5090232;28;20060;-81
2021/04/16 04:52:22;;;;;;;30.52;15.52;;;128.10;2022.40;;;;;;5103812;28;20376;-81
2021/04/16 04:54:51;;;;;;;32.35;16.08;;;103.30;2022.40;;;;;;5089559;28;20020;-82
2021/04/16 04:57:18;;;;;;;34.85;14.20;;;128.00;2048.00;;;;;;5093198;28;20041;-81
2021/04/16 04:59:45;;;;;;;27.45;15.35;;;128.10;2048.00;;;;;;5091682;28;20020;-82
2021/04/16 05:02:12;;;;;;;28.60;14.55;;;128.20;2048.00;;;;;;5124029;28;20128;-81
2021/04/16 05:04:39;;;;;;;32.97;15.82;;;128.20;2022.40;;;;;;5096744;28;20038;-82
2021/04/16 05:07:05;;;;;;;33.45;16.88;;;128.20;2022.40;;;;;;5099322;28;20032;-81
2021/04/16 05:09:30;;;;;;;27.08;14.77;;;128.20;2022.40;;;;;;5093592;28;20043;-81
2021/04/16 05:11:56;;;;;;;33.30;17.48;;;128.30;2022.40;;;;;;5112157;28;20028;-81
2021/04/16 05:14:22;;;;;;;;;;;128.30;2048.00;;;;;;5131315;28;20054;-82
2021/04/16 05:16:48;;;;;;;26.52;14.40;;;128.20;2048.00;;;;;;5097698;28;19926;-80
2021/04/16 05:19:13;;;;;;;;;;;128.10;2048.00;;;;;;5350918;22;20030;-83
2021/04/16 05:21:40;;;;;;;31.70;17.48;;;128.30;2073.60;;;;;;5132927;28;19904;-81
2021/04/16 05:26:41;;;;;;;38.38;17.25;;;128.60;2099.20;;;;;;5241716;22;20278;-81
2021/04/16 05:29:07;;;;;;;28.25;16.27;;;128.10;2099.20;;;;;;5086736;28;20020;-79
2021/04/16 05:31:35;;;;;;;28.58;15.90;;;128.20;2099.20;;;;;;5100779;28;20028;-80
2021/04/16 05:34:01;;;;;;;25.10;15.95;;;128.10;2099.20;;;;;;5099564;28;20099;-79
2021/04/16 05:36:26;;;;;;;28.98;15.40;;;128.10;2099.20;;;;;;5329245;22;20140;-80
2021/04/16 05:38:52;;;;;;;;;;;128.10;2099.20;;;;;;5104957;28;20012;-80
2021/04/16 05:41:19;;;;;;;26.08;14.25;;;128.10;2124.80;;;;;;5121605;28;19892;-80
2021/04/16 05:43:45;;;;;;;28.23;14.60;;;128.00;2124.80;;;;;;5080042;28;20052;-79
2021/04/16 05:46:11;;;;;;;28.48;15.38;;;128.10;2124.80;;;;;;5085908;28;20039;-81
2021/04/16 05:48:36;;;;;;;;;;;128.30;2124.80;;;;;;5092077;28;20091;-81
2021/04/16 05:51:03;;;;;;;27.75;15.02;;;128.20;2150.40;;;;;;5106819;28;19911;-80
2021/04/16 05:53:29;;;;;;;26.45;14.10;;;128.20;2150.40;;;;;;5096370;28;20055;-80
2021/04/16 05:55:55;;;;;;;30.10;15.43;;;128.40;2150.40;;;;;;5081046;28;20020;-80
2021/04/16 05:58:20;;;;;;;;;;;128.60;2124.80;;;;;;5080177;28;20032;-80
2021/04/16 06:00:46;;;;;;;23.83;12.98;;;128.70;2099.20;;;;;;5081541;28;19904;-80
2021/04/16 06:03:12;;;;;;;;;;;128.70;2124.80;;;;;;5084067;28;20392;-82
2021/04/16 06:05:38;;;;;;;23.23;12.95;;;128.90;2124.80;;;;;;5109354;28;19926;-81
2021/04/16 06:08:05;;;;;;;24.20;12.98;;;153.60;2124.80;;;;;;5093130;28;20020;-80
2021/04/16 06:10:30;;;;;;;23.67;12.68;;;153.60;2099.20;;;;;;5093052;28;20058;-79
2021/04/16 06:12:56;;;;;;;;;;;153.80;2124.80;;;;;;5093495;28;20501;-82
2021/04/16 06:15:25;;;;;;;22.33;12.68;;;154.00;2073.60;;;;;;5093213;28;19908;-83
2021/04/16 06:17:51;;;;;;;19.27;13.00;;;154.00;2073.60;;;;;;5093454;28;20028;-83
2021/04/16 06:20:18;;;;;;;;;;;154.20;2048.00;;;;;;5075306;28;20503;-84
2021/04/16 06:22:47;;;;;;;17.80;11.00;;;154.10;2048.00;;;;;;5075145;28;19912;-83
2021/04/16 06:25:15;;;;;;;16.70;11.57;;;154.30;2022.40;;;;;;5073963;28;20134;-81
2021/04/16 06:27:42;;;;;;;19.90;12.25;;;154.30;2048.00;;;;;;5075040;28;20028;-80
2021/04/16 06:30:09;;;;;;;25.08;13.63;;;154.40;2048.00;;;;;;5092610;28;20016;-80
2021/04/16 06:32:35;;;;;;;21.98;12.77;;;154.30;2073.60;;;;;;5072665;28;20169;-81
2021/04/16 06:35:01;;;;;;;;;;;154.50;2048.00;;;;;;5074974;28;20123;-81
2021/04/16 06:37:27;;;;;;;20.60;12.35;;;154.50;2048.00;;;;;;5073637;28;19919;-79
2021/04/16 06:39:52;;;;;;;20.20;12.65;;;154.50;2073.60;;;;;;5074785;28;20466;-82
2021/04/16 06:42:24;;;;;;;;;;;179.20;2048.00;;;;;;5074762;28;20071;-79
2021/04/16 06:44:53;;;;;;;20.25;12.27;;;179.20;2022.40;;;;;;5092212;28;20436;-78
2021/04/16 06:47:34;;;;;;;15.27;10.27;;;179.30;2022.40;;;;;;5090830;28;20024;-77
2021/04/16 06:50:01;;;;;;;17.27;12.77;;;179.40;1996.80;;;;;;5090270;28;20024;-79
2021/04/16 06:52:34;;;;;;;20.33;12.23;;;179.30;2022.40;;;;;;5074027;28;20020;-82
2021/04/16 06:55:12;;;;;;;25.83;13.65;;;179.30;2022.40;;;;;;5073306;28;20043;-80
2021/04/16 06:57:46;;;;;;;20.27;12.65;;;179.20;2022.40;;;;;;5072272;28;20089;-79
2021/04/16 07:00:25;;;;;;;20.42;12.43;;;179.50;2022.40;;;;;;5098695;28;20512;-82
2021/04/16 07:03:13;;;;;;;17.00;11.45;;;179.70;1996.80;;;;;;5096686;28;20030;-78
2021/04/16 07:05:58;;;;;;;;;;;179.70;1971.20;;;;;;5071970;28;20147;-78
2021/04/16 07:08:33;;;;;;;16.33;10.98;;;180.00;1945.60;;;;;;5072112;28;20360;-80
2021/04/16 07:11:01;;;;;;;17.30;11.07;;;180.10;1920.00;;;;;;5071313;28;20470;-80
2021/04/16 07:13:34;;;;;;;21.40;11.75;;;180.10;1894.40;;;;;;5073159;28;20363;-82
2021/04/16 07:15:59;;;;;;;24.38;12.02;;;204.80;1945.60;;;;;;5072932;28;20023;-82
2021/04/16 07:18:30;;;;;;;;;;;180.10;1971.20;;;;;;5073429;28;20024;-80
2021/04/16 07:20:56;;;;;;;18.02;11.68;;;180.10;1945.60;;;;;;5073534;28;19963;-79
2021/04/16 07:23:24;;;;;;;17.63;11.90;;;205.00;1894.40;;;;;;5095144;28;20031;-79
2021/04/16 07:26:02;;;;;;;25.55;14.20;;;204.80;1945.60;;;;;;5090347;28;20493;-80
2021/04/16 07:28:53;;;;;;;14.85;10.23;;;205.00;1920.00;;;;;;5094934;28;20028;-85
2021/04/16 07:31:54;;;;;;;20.65;12.80;;;205.10;1868.80;;;;;;5077605;28;20062;-82
2021/04/16 07:34:28;;;;;;;14.73;9.90;;;205.00;1945.60;;;;;;5093087;28;20107;-78
2021/04/16 07:37:04;;;;;;;15.70;11.05;;;205.20;1868.80;;;;;;5091553;28;20063;-78
2021/04/16 07:39:32;;;;;;;16.10;10.63;;;205.30;1843.20;;;;;;5076382;28;20033;-79
2021/04/16 07:42:10;;;;;;;14.48;10.38;;;205.40;1843.20;;;;;;5076693;28;20024;-78
2021/04/16 07:44:42;;;;;;;14.07;10.50;;;205.10;1894.40;;;;;;5074200;28;20028;-79
2021/04/16 07:47:13;;;;;;;15.45;10.38;;;205.20;1843.20;;;;;;5094216;28;20078;-83
2021/04/16 07:50:00;;;;;;;14.18;10.35;;;205.40;1817.60;;;;;;5074542;28;20035;-78
2021/04/16 07:52:28;;;;;;;14.98;10.35;;;205.00;1868.80;;;;;;5074912;28;20031;-79
2021/04/16 07:55:23;;;;;;;15.20;11.43;;;205.10;1868.80;;;;;;5093364;28;20038;-87
2021/04/16 07:58:10;;;;;;;13.40;9.68;;;205.40;1843.20;;;;;;5094046;28;20028;-79
2021/04/16 08:00:40;;;;;;;;;;;205.30;1817.60;;;;;;5101016;28;20079;-81
2021/04/16 08:03:25;;;;;;;13.55;9.27;;;205.40;1843.20;;;;;;5056312;28;19958;-85
2021/04/16 08:05:52;;;;;;;13.55;9.85;;;205.40;1843.20;;;;;;5074808;28;20371;-82
2021/04/16 08:08:18;;;;;;;14.98;10.18;;;205.40;1817.60;;;;;;5056911;28;20024;-80
2021/04/16 08:10:44;;;;;;;;;;;205.40;1843.20;;;;;;5074591;28;20032;-82
2021/04/16 08:13:36;;;;;;;13.32;8.50;;;205.60;1792.00;;;;;;5094155;28;20003;-80
2021/04/16 08:16:16;;;;;;;13.05;8.80;;;205.50;1792.00;;;;;;5089132;28;20036;-78
2021/04/16 08:18:56;;;;;;;14.40;9.07;;;205.50;1766.40;;;;;;5074670;28;20104;-77
2021/04/16 08:21:23;;;;;;;14.57;10.07;;;205.50;1792.00;;;;;;5093580;28;20028;-78
2021/04/16 08:23:54;;;;;;;13.93;10.02;;;205.70;1766.40;;;;;;5093131;28;20036;-83
2021/04/16 08:26:24;;;;;;;12.88;9.35;;;230.40;1792.00;;;;;;5091914;28;20052;-82
2021/04/16 08:29:13;;;;;;;14.10;8.85;;;230.50;1740.80;;;;;;5076393;28;20077;-78
2021/04/16 08:31:51;;;;;;;10.60;8.13;;;230.70;1715.20;;;;;;5083764;28;20050;-80
2021/04/16 08:34:23;;;;;;;15.43;7.85;;;230.70;1715.20;;;;;;5091870;28;20058;-80
2021/04/16 08:36:49;;;;;;;17.30;12.65;;;230.70;1689.60;;;;;;5089951;28;20048;-77
2021/04/16 08:39:17;;;;;;;;;;;230.80;1715.20;;;;;;5093296;28;20782;-79
2021/04/16 08:42:03;;;;;;;14.20;9.45;;;230.50;1740.80;;;;;;5074882;28;20482;-78
2021/04/16 08:44:33;;;;;;;15.88;8.95;;;230.60;1689.60;;;;;;5073242;28;20043;-83
2021/04/16 08:47:00;;;;;;;10.18;7.57;;;230.70;1664.00;;;;;;5092419;28;20035;-78
2021/04/16 08:49:30;;;;;;;10.80;7.53;;;230.90;1638.40;;;;;;5075285;28;20072;-78
2021/04/16 08:52:16;;;;;;;17.75;10.90;;;230.80;1587.20;;;;;;5093430;28;20466;-79
2021/04/16 08:54:44;;;;;;;14.90;9.98;;;230.90;1612.80;;;;;;5091890;28;20419;-79
2021/04/16 08:57:30;;;;;;;12.57;8.38;;;230.90;1587.20;;;;;;5075548;28;20127;-83
2021/04/16 09:00:10;;;;;;;10.60;7.25;;;231.00;1587.20;;;;;;5075252;28;20016;-81
2021/04/16 09:02:54;;;;;;;10.57;6.88;;;231.10;1587.20;;;;;;5091500;28;20055;-80
2021/04/16 09:05:30;;;;;;;10.77;7.10;;;231.30;1484.80;;;;;;5074042;28;20036;-78
2021/04/16 09:08:08;;;;;;;14.75;9.93;;;256.00;1510.40;;;;;;5075089;28;20032;-80
2021/04/16 09:10:34;;;;;;;10.93;7.75;;;256.10;1484.80;;;;;;5074976;28;20111;-79
2021/04/16 09:13:02;;;;;;;11.48;7.97;;;231.30;1536.00;;;;;;5075617;28;20115;-83
2021/04/16 09:15:39;;;;;;;11.73;7.95;;;256.10;1561.60;;;;;;5075568;28;20024;-85
2021/04/16 09:18:13;;;;;;;12.40;7.75;;;256.20;1561.60;;;;;;5076045;28;20024;-80
2021/04/16 09:20:39;;;;;;;14.65;9.90;;;256.20;1510.40;;;;;;5093531;28;20455;-80
2021/04/16 09:23:19;;;;;;;10.50;8.10;;;256.40;1510.40;;;;;;5074633;28;20027;-78
2021/04/16 09:25:48;;;;;;;11.43;7.93;;;256.50;1484.80;;;;;;5092895;28;20036;-78
2021/04/16 09:28:23;;;;;;;10.13;7.68;;;256.70;1510.40;;;;;;5074537;28;20081;-78
2021/04/16 09:31:17;;;;;;;12.10;8.40;;;256.40;1510.40;;;;;;5074626;28;20116;-77
2021/04/16 09:33:45;;;;;;;17.98;10.75;;;256.10;1510.40;;;;;;5010807;28;20189;-78
2021/04/16 09:36:27;;;;;;;13.35;8.80;;;256.00;1561.60;;;;;;5010509;28;20088;-78
2021/04/16 09:38:53;;;;;;;9.73;7.05;;;256.40;1459.20;;;;;;5013524;28;20100;-78
2021/04/16 09:41:19;;;;;;;18.73;10.45;;;256.70;1408.00;;;;;;5030165;28;20021;-77
2021/04/16 09:43:54;;;;;;;12.63;8.60;;;256.50;1433.60;;;;;;5012829;28;20033;-78
2021/04/16 09:46:35;;;;;;;12.95;8.80;;;256.60;1484.80;;;;;;5030429;28;20116;-77
2021/04/16 09:49:26;;;;;;;11.18;7.85;;;281.60;1433.60;;;;;;5030222;28;20057;-78
2021/04/16 09:51:55;;;;;;;10.63;7.70;;;281.60;1382.40;;;;;;4971317;28;20488;-83
2021/04/16 09:54:20;;;;;;;11.32;8.20;;;256.80;1356.80;;;;;;4971860;28;20129;-77
2021/04/16 09:57:01;;;;;;;11.43;8.40;;;281.90;1408.00;;;;;;4971275;28;20034;-77
2021/04/16 09:59:46;;;;;;;10.02;8.13;;;282.50;1382.40;;;;;;4963931;28;20038;-77
2021/04/16 10:04:45;;;;;;;15.43;10.05;;;282.00;1433.60;;;;;;4932873;29;20046;-77
2021/04/16 10:07:13;;;;;;;15.77;9.15;;;281.90;1408.00;;;;;;4932671;29;20482;-77
2021/04/16 10:09:39;;;;;;;14.65;10.05;;;281.70;1459.20;;;;;;4933622;28;20437;-81
2021/04/16 10:12:14;;;;;;;21.70;14.52;;;281.80;1459.20;;;;;;4993501;28;20088;-77
2021/04/16 10:14:40;;;;;;;14.10;9.38;;;256.90;1459.20;;;;;;5010410;28;20557;-79
2021/04/16 10:17:11;;;;;;;;;;;256.70;1484.80;;;;;;5010893;28;20114;-82
2021/04/16 10:19:41;;;;;;;11.80;8.02;;;281.80;1382.40;;;;;;5041367;28;20367;-82
2021/04/16 10:22:31;;;;;;;10.77;8.60;;;282.50;1433.60;;;;;;5013812;28;20033;-77
2021/04/16 11:33:21;;;;;;;18.67;13.05;;;281.90;1382.40;;;;;;5055704;28;20043;-81
2021/04/16 12:41:40;;;;;;;10.15;7.30;;;333.30;1126.40;;;;;;4937704;29;20055;-76
2021/04/16 12:44:06;;;;;;;8.98;6.15;;;333.30;1254.40;;;;;;4953713;28;20134;-80
2021/04/16 12:46:37;;;;;;;11.57;6.47;;;333.70;1228.80;;;;;;4972760;28;20035;-78
2021/04/16 12:49:05;;;;;;;11.95;7.53;;;358.70;1177.60;;;;;;4972886;28;20133;-79
2021/04/16 12:51:31;;;;;;;9.50;6.20;;;333.60;1228.80;;;;;;4972902;28;20047;-78
2021/04/16 12:53:56;;;;;;;10.48;7.13;;;333.50;1152.00;;;;;;4972812;28;20031;-79
2021/04/16 12:56:32;;;;;;;;;;;333.30;1228.80;;;;;;4982659;28;20030;-80
2021/04/16 12:59:07;;;;;;;12.73;8.48;;;333.40;1177.60;;;;;;5011491;28;19975;-78
2021/04/16 13:01:33;;;;;;;9.32;6.47;;;358.40;1177.60;;;;;;4992432;28;20037;-78
2021/04/16 13:03:59;;;;;;;10.20;6.43;;;333.10;1203.20;;;;;;4975647;28;20022;-80
2021/04/16 13:06:27;;;;;;;8.18;6.18;;;308.10;1280.00;;;;;;4976002;28;20125;-79
2021/04/16 13:08:54;;;;;;;10.63;7.25;;;308.00;1228.80;;;;;;4975754;28;20039;-78
2021/04/16 13:11:21;;;;;;;10.60;7.68;;;332.90;1254.40;;;;;;4985977;28;20145;-78
2021/04/16 13:13:47;;;;;;;10.88;7.35;;;332.80;1254.40;;;;;;4994242;28;20033;-78
2021/04/16 13:16:13;;;;;;;11.38;7.25;;;308.00;1228.80;;;;;;5038070;28;20033;-78
2021/04/16 13:18:46;;;;;;;9.40;6.28;;;307.90;1228.80;;;;;;5034605;28;20021;-78
2021/04/16 13:21:23;;;;;;;9.60;6.82;;;307.50;1254.40;;;;;;5034177;28;20025;-78
2021/04/16 13:23:49;;;;;;;16.15;9.15;;;282.50;1254.40;;;;;;5032756;28;20024;-78
2021/04/16 13:26:15;;;;;;;10.75;7.68;;;307.40;1254.40;;;;;;5052259;28;20040;-78
2021/04/16 13:28:41;;;;;;;28.95;14.50;;;307.40;1254.40;;;;;;5030672;28;20028;-79
2021/04/16 13:31:07;;;;;;;29.98;15.70;;;307.30;1280.00;;;;;;5052037;28;20020;-79
2021/04/16 13:33:38;;;;;;;11.85;7.45;;;307.20;1254.40;;;;;;5034141;28;20112;-79
2021/04/16 13:36:07;;;;;;;14.82;9.40;;;282.30;1254.40;;;;;;5071660;28;20086;-79
2021/04/16 13:38:32;;;;;;;11.77;8.23;;;307.30;1228.80;;;;;;5054276;28;20497;-79
2021/04/16 13:41:01;;;;;;;13.63;8.90;;;307.40;1228.80;;;;;;5054504;28;20029;-81
2021/04/16 13:43:29;;;;;;;11.25;7.60;;;307.40;1254.40;;;;;;5054453;28;20027;-82
2021/04/16 13:45:55;;;;;;;8.98;6.40;;;307.50;1280.00;;;;;;5054392;28;20482;-81
2021/04/16 13:48:21;;;;;;;11.07;6.03;;;307.50;1280.00;;;;;;5051940;28;20037;-79
2021/04/16 13:50:47;;;;;;;7.03;5.43;;;307.60;1203.20;;;;;;5065437;28;20037;-81
2021/04/16 13:53:14;;;;;;;8.93;6.15;;;307.60;1228.80;;;;;;5054661;28;20024;-80
2021/04/16 13:55:40;;;;;;;11.85;7.68;;;307.40;1254.40;;;;;;5054129;28;20021;-80
2021/04/16 13:58:05;;;;;;;13.45;8.43;;;307.30;1228.80;;;;;;5049192;28;20029;-79
2021/04/16 14:00:33;;;;;;;26.05;13.65;;;307.30;1305.60;;;;;;5051177;28;20027;-79
2021/04/16 14:03:10;;;;;;;29.60;15.80;;;307.40;1254.40;;;;;;5052611;28;20017;-79
2021/04/16 14:05:35;;;;;;;;;;;307.40;1203.20;;;;;;5054482;28;20032;-79
2021/04/16 14:08:02;;;;;;;34.33;17.00;;;307.20;1280.00;;;;;;5060105;28;19916;-79
2021/04/16 14:10:29;;;;;;;25.13;12.25;;;307.40;1228.80;;;;;;5052530;28;20025;-79
2021/04/16 14:12:55;;;;;;;24.95;12.38;;;307.30;1228.80;;;;;;5040771;28;20129;-81
2021/04/16 14:15:22;;;;;;;13.13;8.50;;;282.50;1254.40;;;;;;5054969;28;20024;-81
2021/04/16 14:17:52;;;;;;;12.77;7.97;;;282.40;1280.00;;;;;;5040510;28;20017;-80
2021/04/16 14:20:26;;;;;;;14.52;8.68;;;282.00;1305.60;;;;;;5051217;28;20021;-78
2021/04/16 14:22:53;;;;;;;9.68;6.65;;;281.90;1331.20;;;;;;5052317;28;20045;-84
2021/04/16 14:25:39;;;;;;;9.50;6.85;;;281.70;1331.20;;;;;;5061797;28;20036;-79
2021/04/16 14:28:09;;;;;;;9.82;6.15;;;281.80;1331.20;;;;;;5071456;28;20023;-79
2021/04/16 14:30:36;;;;;;;12.43;7.13;;;281.90;1305.60;;;;;;5070630;28;20032;-78
2021/04/16 14:33:05;;;;;;;10.77;6.82;;;281.80;1331.20;;;;;;5053615;28;20021;-78
2021/04/16 14:35:32;;;;;;;12.77;7.28;;;282.20;1305.60;;;;;;5053474;28;20052;-79
2021/04/16 14:38:01;;;;;;;12.57;6.22;;;282.50;1280.00;;;;;;5053661;28;20021;-79
2021/04/16 14:40:27;;;;;;;8.27;5.63;;;282.50;1280.00;;;;;;5053820;28;20098;-80
2021/04/16 14:42:54;;;;;;;9.48;6.10;;;282.20;1254.40;;;;;;5053857;28;20028;-80
2021/04/16 14:45:26;;;;;;;10.85;5.97;;;282.50;1228.80;;;;;;5053770;28;20029;-79
2021/04/16 14:47:55;;;;;;;7.95;5.32;;;307.40;1280.00;;;;;;5050997;28;20020;-78